»·PEaware :: N701GT KJAC-KPSP

N701GT :: KJAC-KPSP

FLIGHT INFORMATION

Flight Status: Arrived
Operator: Privately registered:
United States
More flights under this callsign
Pilot: Anonymous 17564 (17564)
Aircraft: GATES LEARJET LEARJET 25
(LJ25)
More flights by this aircraft type
Origin: KJAC Jackson Hole
United States
Destination: KPSP Palm Springs Intl
United States
More flights between these airports :: More routes between these airports
Route: +ALPIN2 KICNE PROXI Q842 BEALE GFS CLOWD1
File this flight plan on PilotEdge
Remarks:
Altitude:
(Current/Filed)
38,000ft
Speed:
(Current/Filed)
450kts
Departed: 19-Jul-18 05:30 PM
Arrived: 19-Jul-18 07:16 PM
Distance/Time
Traveled:
646nm/1:46
Distance/Time
To Go:
Arrived

Flight Plot

Page will automatically refresh every two minutes.


Map Options




Map Legend


Flown Route
Filed Route
Departure Airport
Arrival Airport
Navaid (VOR, NDB)
Fix

Horizontal Profiles

Position Reports

Time Latitude Longitude Heading Altitude Ground
Speed
19-Jul-18 17:07 43.601126 -110.737755 107 6454ft 0kts
19-Jul-18 17:08 43.601126 -110.737755 107 6454ft 0kts
19-Jul-18 17:09 43.601126 -110.737755 107 6454ft 0kts
19-Jul-18 17:10 43.601126 -110.737755 107 6454ft 0kts
19-Jul-18 17:11 43.601126 -110.737755 107 6454ft 0kts
19-Jul-18 17:12 43.601126 -110.737755 107 6454ft 0kts
19-Jul-18 17:13 43.601126 -110.737755 107 6454ft 0kts
19-Jul-18 17:14 43.601126 -110.737755 107 6454ft 0kts
19-Jul-18 17:15 43.601126 -110.737755 107 6454ft 0kts
19-Jul-18 17:16 43.601126 -110.737755 107 6454ft 0kts
19-Jul-18 17:17 43.601126 -110.737755 107 6454ft 0kts
19-Jul-18 17:18 43.601126 -110.737755 107 6454ft 0kts
19-Jul-18 17:19 43.601126 -110.737755 107 6454ft 0kts
19-Jul-18 17:20 43.601126 -110.737755 107 6454ft 0kts
19-Jul-18 17:21 43.601126 -110.737755 107 6454ft 0kts
19-Jul-18 17:22 43.601126 -110.737755 107 6454ft 0kts
19-Jul-18 17:23 43.600898 -110.737928 244 6454ft 3kts
19-Jul-18 17:24 43.600875 -110.738234 318 6454ft 0kts
19-Jul-18 17:25 43.602224 -110.738697 19 6454ft 9kts
19-Jul-18 17:26 43.604433 -110.737616 19 6454ft 8kts
19-Jul-18 17:27 43.606888 -110.736400 19 6454ft 14kts
19-Jul-18 17:28 43.612188 -110.733831 19 6454ft 15kts
19-Jul-18 17:29 43.614504 -110.732680 20 6454ft 3kts
19-Jul-18 17:30 43.615001 -110.732755 300 6454ft 7kts
19-Jul-18 17:31 43.613078 -110.734950 198 6454ft 61kts
19-Jul-18 17:32 43.566599 -110.759802 203 7488ft 224kts
19-Jul-18 17:33 43.511518 -110.793878 208 10362ft 215kts
19-Jul-18 17:34 43.451507 -110.834423 208 13397ft 309kts
19-Jul-18 17:35 43.363400 -110.892687 208 16584ft 355kts
19-Jul-18 17:36 43.273555 -110.952069 208 19777ft 363kts
19-Jul-18 17:37 43.187787 -111.027159 225 22930ft 376kts
19-Jul-18 17:38 43.109322 -111.126846 224 23654ft 385kts
19-Jul-18 17:39 43.029672 -111.227252 225 25633ft 394kts
19-Jul-18 17:40 42.947936 -111.329930 225 27635ft 404kts
19-Jul-18 17:41 42.864361 -111.434515 225 29629ft 411kts
19-Jul-18 17:42 42.780727 -111.538730 226 32004ft 402kts
19-Jul-18 17:43 42.696290 -111.643707 226 34911ft 430kts
19-Jul-18 17:44 42.605911 -111.755440 226 37782ft 439kts
19-Jul-18 17:45 42.515180 -111.867166 225 38193ft 439kts
19-Jul-18 17:46 42.426520 -111.975916 225 38161ft 431kts
19-Jul-18 17:47 42.336900 -112.085427 225 38148ft 433kts
19-Jul-18 17:48 42.247496 -112.194226 225 38136ft 434kts
19-Jul-18 17:49 42.157264 -112.303593 225 38135ft 435kts
19-Jul-18 17:50 42.067207 -112.412312 225 38130ft 435kts
19-Jul-18 17:51 41.971592 -112.511758 206 38117ft 445kts
19-Jul-18 17:52 41.846287 -112.527001 185 38111ft 460kts
19-Jul-18 17:53 41.718215 -112.528623 185 38112ft 461kts
19-Jul-18 17:54 41.589663 -112.530004 185 38110ft 461kts
19-Jul-18 17:55 41.461302 -112.531321 185 38110ft 461kts
19-Jul-18 17:56 41.333227 -112.532647 185 38112ft 461kts
19-Jul-18 17:57 41.204799 -112.535127 186 38112ft 460kts
19-Jul-18 17:58 41.076814 -112.540659 186 38114ft 461kts
19-Jul-18 17:59 40.948739 -112.545734 185 38111ft 461kts
19-Jul-18 18:00 40.820322 -112.550728 185 38111ft 461kts
19-Jul-18 18:01 40.691738 -112.555674 185 38110ft 462kts
19-Jul-18 18:02 40.565254 -112.560550 185 38113ft 462kts
19-Jul-18 18:03 40.437097 -112.565453 185 38114ft 462kts
19-Jul-18 18:04 40.308281 -112.570390 185 38116ft 462kts
19-Jul-18 18:05 40.179744 -112.575283 185 38117ft 462kts
19-Jul-18 18:06 40.051080 -112.580145 185 38119ft 463kts
19-Jul-18 18:07 39.924912 -112.602271 202 38120ft 455kts
19-Jul-18 18:08 39.805719 -112.658026 202 38121ft 456kts
19-Jul-18 18:09 39.686009 -112.713372 202 38122ft 456kts
19-Jul-18 18:10 39.566423 -112.768407 202 38123ft 456kts
19-Jul-18 18:11 39.446808 -112.823234 202 38123ft 456kts
19-Jul-18 18:12 39.327205 -112.877878 201 38131ft 456kts
19-Jul-18 18:13 39.207553 -112.932336 201 38138ft 456kts
19-Jul-18 18:14 39.087942 -112.986576 201 38159ft 455kts
19-Jul-18 18:15 38.968491 -113.040549 201 38178ft 455kts
19-Jul-18 18:16 38.848652 -113.094505 201 38197ft 455kts
19-Jul-18 18:17 38.729309 -113.148044 201 38157ft 455kts
19-Jul-18 18:18 38.609590 -113.201546 201 38161ft 455kts
19-Jul-18 18:19 38.489594 -113.254955 201 38166ft 456kts
19-Jul-18 18:20 38.369903 -113.308019 201 38170ft 456kts
19-Jul-18 18:21 38.250094 -113.360987 201 38173ft 456kts
19-Jul-18 18:22 38.129973 -113.413893 200 38177ft 456kts
19-Jul-18 18:23 38.010167 -113.466472 200 38178ft 456kts
19-Jul-18 18:24 37.894682 -113.531010 214 38179ft 454kts
19-Jul-18 18:25 37.788445 -113.617624 213 38187ft 455kts
19-Jul-18 18:26 37.681433 -113.704112 213 38199ft 455kts
19-Jul-18 18:27 37.574645 -113.790077 213 38108ft 455kts
19-Jul-18 18:28 37.467940 -113.875675 213 38079ft 455kts
19-Jul-18 18:29 37.360748 -113.961366 213 38058ft 456kts
19-Jul-18 18:30 37.253754 -114.046605 213 38046ft 456kts
19-Jul-18 18:31 37.146351 -114.131877 213 38040ft 456kts
19-Jul-18 18:32 37.038946 -114.216857 213 38046ft 456kts
19-Jul-18 18:33 36.931541 -114.301551 212 38020ft 457kts
19-Jul-18 18:34 36.824026 -114.386045 212 38001ft 457kts
19-Jul-18 18:35 36.716325 -114.470400 212 37991ft 457kts
19-Jul-18 18:36 36.604739 -114.546863 208 37978ft 458kts
19-Jul-18 18:37 36.492063 -114.621072 208 37953ft 458kts
19-Jul-18 18:38 36.379301 -114.695943 208 37945ft 458kts
19-Jul-18 18:39 36.266860 -114.770489 208 37646ft 461kts
19-Jul-18 18:40 36.150580 -114.837398 195 36091ft 463kts
19-Jul-18 18:41 36.039269 -114.874575 195 34676ft 465kts
19-Jul-18 18:42 35.913411 -114.916804 195 33085ft 471kts
19-Jul-18 18:43 35.786068 -114.959435 195 31502ft 478kts
19-Jul-18 18:44 35.656880 -115.002556 195 29927ft 486kts
19-Jul-18 18:45 35.525100 -115.046386 195 28346ft 491kts
19-Jul-18 18:46 35.393955 -115.089855 195 26756ft 486kts
19-Jul-18 18:47 35.264239 -115.132708 195 25157ft 478kts
19-Jul-18 18:48 35.137185 -115.174544 195 23963ft 469kts
19-Jul-18 18:49 35.014743 -115.227305 200 23884ft 466kts
19-Jul-18 18:50 34.892683 -115.281797 200 23894ft 466kts
19-Jul-18 18:51 34.770641 -115.335515 200 23904ft 467kts
19-Jul-18 18:52 34.648282 -115.389137 199 22639ft 464kts
19-Jul-18 18:53 34.528512 -115.441458 199 20850ft 452kts
19-Jul-18 18:54 34.412148 -115.492125 199 19055ft 437kts
19-Jul-18 18:55 34.304616 -115.553332 220 17263ft 422kts
19-Jul-18 18:56 34.220193 -115.648852 223 15477ft 409kts
19-Jul-18 18:57 34.138057 -115.741090 223 13683ft 383kts
19-Jul-18 18:58 34.076626 -115.798992 213 12085ft 298kts
19-Jul-18 18:59 34.001413 -115.859837 213 11060ft 251kts
19-Jul-18 19:00 33.942882 -115.907125 213 11058ft 262kts
19-Jul-18 19:01 33.891769 -115.948386 213 11032ft 266kts
19-Jul-18 19:02 33.830074 -115.998122 213 11004ft 268kts
19-Jul-18 19:03 33.757768 -116.056275 213 10962ft 268kts
19-Jul-18 19:04 33.695866 -116.105969 213 10955ft 268kts
19-Jul-18 19:05 33.654378 -116.159387 234 10955ft 267kts
19-Jul-18 19:06 33.589400 -116.182383 158 9996ft 270kts
19-Jul-18 19:07 33.522797 -116.144466 153 7900ft 261kts
19-Jul-18 19:08 33.504016 -116.077625 43 5808ft 253kts
19-Jul-18 19:09 33.563124 -116.094911 314 4030ft 237kts
19-Jul-18 19:10 33.608861 -116.153435 312 3954ft 243kts
19-Jul-18 19:11 33.654950 -116.213119 312 3953ft 245kts
19-Jul-18 19:12 33.695484 -116.278310 293 3920ft 236kts
19-Jul-18 19:13 33.712816 -116.340372 285 3998ft 226kts
19-Jul-18 19:14 33.738674 -116.405738 303 3451ft 220kts
19-Jul-18 19:15 33.777838 -116.460802 319 1942ft 222kts
19-Jul-18 19:16 33.821005 -116.499952 323 501ft 156kts
19-Jul-18 19:17 33.828688 -116.507659 290 480ft 0kts
19-Jul-18 19:18 33.827604 -116.507883 143 480ft 19kts
19-Jul-18 19:19 33.825573 -116.507276 205 480ft 6kts
19-Jul-18 19:20 33.825615 -116.508571 269 480ft 0kts
19-Jul-18 19:21 33.825615 -116.508571 269 480ft 0kts
19-Jul-18 19:22 33.825615 -116.508571 269 480ft 0kts
19-Jul-18 19:23 33.825615 -116.508571 269 480ft 0kts
19-Jul-18 19:24 33.825615 -116.508571 269 480ft 0kts
19-Jul-18 19:25 33.825615 -116.508571 269 480ft 0kts

Navigation Log

Ident Type
Flight plan parsing failed, navigation log unavailable